sensor_id;sensor_type;location;lat;lon;timestamp;P1;durP1;ratioP1;P2;durP2;ratioP2
23266;SDS011;11802;53.160;8.214;2023-08-07T00:00:12;10.50;;;5.10;;
23266;SDS011;11802;53.160;8.214;2023-08-07T00:02:37;8.35;;;4.82;;
23266;SDS011;11802;53.160;8.214;2023-08-07T00:05:03;10.43;;;5.50;;
23266;SDS011;11802;53.160;8.214;2023-08-07T00:07:30;7.93;;;5.13;;
23266;SDS011;11802;53.160;8.214;2023-08-07T00:09:55;6.78;;;4.88;;
23266;SDS011;11802;53.160;8.214;2023-08-07T00:12:21;8.90;;;5.10;;
23266;SDS011;11802;53.160;8.214;2023-08-07T00:14:47;12.17;;;5.50;;
23266;SDS011;11802;53.160;8.214;2023-08-07T00:17:15;9.17;;;5.97;;
23266;SDS011;11802;53.160;8.214;2023-08-07T00:19:40;11.47;;;5.67;;
23266;SDS011;11802;53.160;8.214;2023-08-07T00:22:06;10.27;;;5.40;;
23266;SDS011;11802;53.160;8.214;2023-08-07T00:24:31;11.13;;;5.27;;
23266;SDS011;11802;53.160;8.214;2023-08-07T00:26:57;8.40;;;4.97;;
23266;SDS011;11802;53.160;8.214;2023-08-07T00:29:22;8.33;;;4.87;;
23266;SDS011;11802;53.160;8.214;2023-08-07T00:31:48;9.85;;;5.35;;
23266;SDS011;11802;53.160;8.214;2023-08-07T00:34:14;9.85;;;5.53;;
23266;SDS011;11802;53.160;8.214;2023-08-07T00:36:40;11.77;;;5.43;;
23266;SDS011;11802;53.160;8.214;2023-08-07T00:39:05;11.80;;;5.03;;
23266;SDS011;11802;53.160;8.214;2023-08-07T00:41:32;10.63;;;5.60;;
23266;SDS011;11802;53.160;8.214;2023-08-07T00:43:58;7.47;;;5.17;;
23266;SDS011;11802;53.160;8.214;2023-08-07T00:46:23;9.02;;;5.45;;
23266;SDS011;11802;53.160;8.214;2023-08-07T00:48:49;9.50;;;5.40;;
23266;SDS011;11802;53.160;8.214;2023-08-07T00:51:16;7.73;;;4.97;;
23266;SDS011;11802;53.160;8.214;2023-08-07T00:53:42;8.77;;;5.30;;
23266;SDS011;11802;53.160;8.214;2023-08-07T00:56:08;7.00;;;4.87;;
23266;SDS011;11802;53.160;8.214;2023-08-07T00:58:34;9.07;;;5.30;;
23266;SDS011;11802;53.160;8.214;2023-08-07T01:01:01;9.67;;;5.63;;
23266;SDS011;11802;53.160;8.214;2023-08-07T01:03:26;10.00;;;5.57;;
23266;SDS011;11802;53.160;8.214;2023-08-07T01:05:52;9.83;;;5.63;;
23266;SDS011;11802;53.160;8.214;2023-08-07T01:08:17;8.93;;;4.87;;
23266;SDS011;11802;53.160;8.214;2023-08-07T01:11:33;14.10;;;5.38;;
23266;SDS011;11802;53.160;8.214;2023-08-07T01:16:29;8.95;;;5.68;;
23266;SDS011;11802;53.160;8.214;2023-08-07T01:19:00;10.80;;;5.13;;
23266;SDS011;11802;53.160;8.214;2023-08-07T01:21:27;11.00;;;5.50;;
23266;SDS011;11802;53.160;8.214;2023-08-07T01:23:53;8.67;;;4.67;;
23266;SDS011;11802;53.160;8.214;2023-08-07T01:26:19;9.20;;;5.37;;
23266;SDS011;11802;53.160;8.214;2023-08-07T01:28:49;9.67;;;4.77;;
23266;SDS011;11802;53.160;8.214;2023-08-07T01:31:28;9.80;;;5.10;;
23266;SDS011;11802;53.160;8.214;2023-08-07T01:33:57;11.23;;;5.40;;
23266;SDS011;11802;53.160;8.214;2023-08-07T01:36:30;8.73;;;5.00;;
23266;SDS011;11802;53.160;8.214;2023-08-07T01:38:57;11.50;;;5.60;;
23266;SDS011;11802;53.160;8.214;2023-08-07T01:41:24;9.17;;;5.33;;
23266;SDS011;11802;53.160;8.214;2023-08-07T01:43:50;8.13;;;5.00;;
23266;SDS011;11802;53.160;8.214;2023-08-07T01:46:17;9.17;;;5.43;;
23266;SDS011;11802;53.160;8.214;2023-08-07T01:48:43;9.00;;;5.00;;
23266;SDS011;11802;53.160;8.214;2023-08-07T01:51:08;7.47;;;5.20;;
23266;SDS011;11802;53.160;8.214;2023-08-07T01:53:34;8.00;;;5.23;;
23266;SDS011;11802;53.160;8.214;2023-08-07T01:55:59;9.80;;;5.53;;
23266;SDS011;11802;53.160;8.214;2023-08-07T01:58:25;9.52;;;5.63;;
23266;SDS011;11802;53.160;8.214;2023-08-07T02:00:51;10.50;;;5.27;;
23266;SDS011;11802;53.160;8.214;2023-08-07T02:03:16;11.37;;;4.80;;
23266;SDS011;11802;53.160;8.214;2023-08-07T02:05:44;12.07;;;6.00;;
23266;SDS011;11802;53.160;8.214;2023-08-07T02:08:10;10.40;;;6.03;;
23266;SDS011;11802;53.160;8.214;2023-08-07T02:10:36;13.20;;;6.27;;
23266;SDS011;11802;53.160;8.214;2023-08-07T02:13:02;9.50;;;5.70;;
23266;SDS011;11802;53.160;8.214;2023-08-07T02:15:27;10.63;;;5.63;;
23266;SDS011;11802;53.160;8.214;2023-08-07T02:17:53;13.40;;;5.95;;
23266;SDS011;11802;53.160;8.214;2023-08-07T02:20:18;8.23;;;5.17;;
23266;SDS011;11802;53.160;8.214;2023-08-07T02:22:44;9.70;;;5.13;;
23266;SDS011;11802;53.160;8.214;2023-08-07T02:25:10;9.97;;;5.97;;
23266;SDS011;11802;53.160;8.214;2023-08-07T02:27:35;9.77;;;5.73;;
23266;SDS011;11802;53.160;8.214;2023-08-07T02:30:01;8.13;;;5.70;;
23266;SDS011;11802;53.160;8.214;2023-08-07T02:32:28;7.73;;;5.17;;
23266;SDS011;11802;53.160;8.214;2023-08-07T02:34:54;9.57;;;5.27;;
23266;SDS011;11802;53.160;8.214;2023-08-07T02:37:20;9.87;;;5.03;;
23266;SDS011;11802;53.160;8.214;2023-08-07T02:39:46;9.60;;;5.53;;
23266;SDS011;11802;53.160;8.214;2023-08-07T02:42:11;9.10;;;4.80;;
23266;SDS011;11802;53.160;8.214;2023-08-07T02:44:37;6.77;;;3.97;;
23266;SDS011;11802;53.160;8.214;2023-08-07T02:47:03;15.43;;;5.00;;
23266;SDS011;11802;53.160;8.214;2023-08-07T02:49:28;7.50;;;4.13;;
23266;SDS011;11802;53.160;8.214;2023-08-07T02:51:54;8.80;;;3.73;;
23266;SDS011;11802;53.160;8.214;2023-08-07T02:54:19;8.47;;;4.50;;
23266;SDS011;11802;53.160;8.214;2023-08-07T02:56:45;7.27;;;3.73;;
23266;SDS011;11802;53.160;8.214;2023-08-07T02:59:10;5.60;;;3.43;;
23266;SDS011;11802;53.160;8.214;2023-08-07T03:01:36;7.27;;;4.23;;
23266;SDS011;11802;53.160;8.214;2023-08-07T03:04:01;8.10;;;4.73;;
23266;SDS011;11802;53.160;8.214;2023-08-07T03:06:27;4.60;;;3.63;;
23266;SDS011;11802;53.160;8.214;2023-08-07T03:08:52;7.90;;;4.27;;
23266;SDS011;11802;53.160;8.214;2023-08-07T03:11:18;7.00;;;4.73;;
23266;SDS011;11802;53.160;8.214;2023-08-07T03:13:43;7.93;;;4.80;;
23266;SDS011;11802;53.160;8.214;2023-08-07T03:16:09;9.97;;;4.70;;
23266;SDS011;11802;53.160;8.214;2023-08-07T03:18:35;12.00;;;5.30;;
23266;SDS011;11802;53.160;8.214;2023-08-07T03:21:01;9.00;;;5.60;;
23266;SDS011;11802;53.160;8.214;2023-08-07T03:23:27;14.27;;;5.90;;
23266;SDS011;11802;53.160;8.214;2023-08-07T03:26:06;8.67;;;6.13;;
23266;SDS011;11802;53.160;8.214;2023-08-07T03:28:32;12.00;;;6.13;;
23266;SDS011;11802;53.160;8.214;2023-08-07T03:30:58;9.93;;;5.43;;
23266;SDS011;11802;53.160;8.214;2023-08-07T03:33:24;9.13;;;5.50;;
23266;SDS011;11802;53.160;8.214;2023-08-07T03:35:49;9.63;;;5.63;;
23266;SDS011;11802;53.160;8.214;2023-08-07T03:38:15;9.73;;;5.00;;
23266;SDS011;11802;53.160;8.214;2023-08-07T03:40:40;7.37;;;4.63;;
23266;SDS011;11802;53.160;8.214;2023-08-07T03:43:06;8.47;;;4.60;;
23266;SDS011;11802;53.160;8.214;2023-08-07T03:45:31;9.20;;;4.87;;
23266;SDS011;11802;53.160;8.214;2023-08-07T03:47:57;7.40;;;4.27;;
23266;SDS011;11802;53.160;8.214;2023-08-07T03:50:22;7.47;;;4.00;;
23266;SDS011;11802;53.160;8.214;2023-08-07T03:52:48;10.70;;;4.20;;
23266;SDS011;11802;53.160;8.214;2023-08-07T03:55:14;10.60;;;3.97;;
23266;SDS011;11802;53.160;8.214;2023-08-07T03:57:39;7.13;;;3.50;;
23266;SDS011;11802;53.160;8.214;2023-08-07T04:00:05;8.35;;;3.30;;
23266;SDS011;11802;53.160;8.214;2023-08-07T04:02:31;6.18;;;3.47;;
23266;SDS011;11802;53.160;8.214;2023-08-07T04:04:56;5.27;;;3.33;;
23266;SDS011;11802;53.160;8.214;2023-08-07T04:07:25;8.03;;;3.40;;
23266;SDS011;11802;53.160;8.214;2023-08-07T04:09:50;7.27;;;3.20;;
23266;SDS011;11802;53.160;8.214;2023-08-07T04:12:16;6.20;;;3.05;;
23266;SDS011;11802;53.160;8.214;2023-08-07T04:14:41;8.73;;;3.03;;
23266;SDS011;11802;53.160;8.214;2023-08-07T04:17:07;7.63;;;3.07;;
23266;SDS011;11802;53.160;8.214;2023-08-07T04:19:32;8.65;;;3.05;;
23266;SDS011;11802;53.160;8.214;2023-08-07T04:21:58;5.75;;;3.05;;
23266;SDS011;11802;53.160;8.214;2023-08-07T04:24:24;9.10;;;2.63;;
23266;SDS011;11802;53.160;8.214;2023-08-07T04:26:49;6.22;;;2.92;;
23266;SDS011;11802;53.160;8.214;2023-08-07T04:29:15;6.72;;;2.40;;
23266;SDS011;11802;53.160;8.214;2023-08-07T04:31:41;3.80;;;2.63;;
23266;SDS011;11802;53.160;8.214;2023-08-07T04:34:06;6.90;;;2.73;;
23266;SDS011;11802;53.160;8.214;2023-08-07T04:36:32;7.68;;;2.33;;
23266;SDS011;11802;53.160;8.214;2023-08-07T04:38:58;5.40;;;2.50;;
23266;SDS011;11802;53.160;8.214;2023-08-07T04:41:23;9.45;;;2.67;;
23266;SDS011;11802;53.160;8.214;2023-08-07T04:43:49;6.87;;;3.07;;
23266;SDS011;11802;53.160;8.214;2023-08-07T04:46:14;5.78;;;2.35;;
23266;SDS011;11802;53.160;8.214;2023-08-07T04:48:40;7.57;;;2.58;;
23266;SDS011;11802;53.160;8.214;2023-08-07T04:51:06;5.53;;;2.20;;
23266;SDS011;11802;53.160;8.214;2023-08-07T04:53:31;5.73;;;2.10;;
23266;SDS011;11802;53.160;8.214;2023-08-07T04:55:59;6.47;;;2.17;;
23266;SDS011;11802;53.160;8.214;2023-08-07T04:58:24;5.80;;;1.98;;
23266;SDS011;11802;53.160;8.214;2023-08-07T05:00:54;3.72;;;1.70;;
23266;SDS011;11802;53.160;8.214;2023-08-07T05:03:23;4.70;;;1.80;;
23266;SDS011;11802;53.160;8.214;2023-08-07T05:05:49;5.80;;;2.05;;
23266;SDS011;11802;53.160;8.214;2023-08-07T05:08:15;5.90;;;2.13;;
23266;SDS011;11802;53.160;8.214;2023-08-07T05:10:41;6.47;;;1.98;;
23266;SDS011;11802;53.160;8.214;2023-08-07T05:13:07;5.47;;;2.05;;
23266;SDS011;11802;53.160;8.214;2023-08-07T05:15:32;4.32;;;2.33;;
23266;SDS011;11802;53.160;8.214;2023-08-07T05:17:58;9.77;;;2.30;;
23266;SDS011;11802;53.160;8.214;2023-08-07T05:20:23;6.10;;;2.72;;
23266;SDS011;11802;53.160;8.214;2023-08-07T05:22:49;7.18;;;2.88;;
23266;SDS011;11802;53.160;8.214;2023-08-07T05:25:15;5.47;;;2.20;;
23266;SDS011;11802;53.160;8.214;2023-08-07T05:27:41;7.90;;;2.55;;
23266;SDS011;11802;53.160;8.214;2023-08-07T05:30:07;8.00;;;2.70;;
23266;SDS011;11802;53.160;8.214;2023-08-07T05:32:33;6.22;;;2.88;;
23266;SDS011;11802;53.160;8.214;2023-08-07T05:35:02;9.40;;;3.13;;
23266;SDS011;11802;53.160;8.214;2023-08-07T05:37:32;8.38;;;2.83;;
23266;SDS011;11802;53.160;8.214;2023-08-07T05:39:58;6.97;;;2.72;;
23266;SDS011;11802;53.160;8.214;2023-08-07T05:42:23;5.93;;;2.80;;
23266;SDS011;11802;53.160;8.214;2023-08-07T05:44:49;5.70;;;2.70;;
23266;SDS011;11802;53.160;8.214;2023-08-07T05:47:15;6.53;;;2.38;;
23266;SDS011;11802;53.160;8.214;2023-08-07T05:49:40;8.75;;;2.20;;
23266;SDS011;11802;53.160;8.214;2023-08-07T05:52:06;6.90;;;2.63;;
23266;SDS011;11802;53.160;8.214;2023-08-07T05:54:32;10.77;;;2.60;;
23266;SDS011;11802;53.160;8.214;2023-08-07T05:56:58;5.60;;;2.22;;
23266;SDS011;11802;53.160;8.214;2023-08-07T05:59:24;6.97;;;2.55;;
23266;SDS011;11802;53.160;8.214;2023-08-07T06:01:51;11.30;;;2.90;;
23266;SDS011;11802;53.160;8.214;2023-08-07T06:04:17;6.80;;;2.42;;
23266;SDS011;11802;53.160;8.214;2023-08-07T06:06:43;5.43;;;2.22;;
23266;SDS011;11802;53.160;8.214;2023-08-07T06:09:09;9.65;;;2.33;;
23266;SDS011;11802;53.160;8.214;2023-08-07T06:11:34;7.18;;;2.50;;
23266;SDS011;11802;53.160;8.214;2023-08-07T06:14:00;7.18;;;2.30;;
23266;SDS011;11802;53.160;8.214;2023-08-07T06:16:26;6.78;;;1.88;;
23266;SDS011;11802;53.160;8.214;2023-08-07T06:18:52;13.38;;;2.20;;
23266;SDS011;11802;53.160;8.214;2023-08-07T06:21:18;6.22;;;1.77;;
23266;SDS011;11802;53.160;8.214;2023-08-07T06:23:44;7.00;;;2.05;;
23266;SDS011;11802;53.160;8.214;2023-08-07T06:26:10;6.03;;;1.73;;
23266;SDS011;11802;53.160;8.214;2023-08-07T06:28:36;15.05;;;2.80;;
23266;SDS011;11802;53.160;8.214;2023-08-07T06:31:05;8.40;;;2.15;;
23266;SDS011;11802;53.160;8.214;2023-08-07T06:33:35;8.77;;;2.35;;
23266;SDS011;11802;53.160;8.214;2023-08-07T06:36:02;11.15;;;2.50;;
23266;SDS011;11802;53.160;8.214;2023-08-07T06:38:28;11.63;;;2.80;;
23266;SDS011;11802;53.160;8.214;2023-08-07T06:40:53;26.65;;;6.18;;
23266;SDS011;11802;53.160;8.214;2023-08-07T06:43:19;9.55;;;3.15;;
23266;SDS011;11802;53.160;8.214;2023-08-07T06:45:51;9.57;;;3.00;;
23266;SDS011;11802;53.160;8.214;2023-08-07T06:48:19;10.73;;;2.72;;
23266;SDS011;11802;53.160;8.214;2023-08-07T06:50:48;11.88;;;3.63;;
23266;SDS011;11802;53.160;8.214;2023-08-07T06:53:15;12.50;;;3.28;;
23266;SDS011;11802;53.160;8.214;2023-08-07T06:55:41;12.85;;;2.88;;
23266;SDS011;11802;53.160;8.214;2023-08-07T06:58:07;13.27;;;3.13;;
23266;SDS011;11802;53.160;8.214;2023-08-07T07:00:33;9.77;;;2.97;;
23266;SDS011;11802;53.160;8.214;2023-08-07T07:03:00;15.65;;;3.00;;
23266;SDS011;11802;53.160;8.214;2023-08-07T07:05:26;12.57;;;3.17;;
23266;SDS011;11802;53.160;8.214;2023-08-07T07:07:51;9.45;;;2.88;;
23266;SDS011;11802;53.160;8.214;2023-08-07T07:10:17;13.35;;;3.13;;
23266;SDS011;11802;53.160;8.214;2023-08-07T07:12:42;13.65;;;3.10;;
23266;SDS011;11802;53.160;8.214;2023-08-07T07:15:08;13.50;;;3.13;;
23266;SDS011;11802;53.160;8.214;2023-08-07T07:17:34;9.00;;;2.20;;
23266;SDS011;11802;53.160;8.214;2023-08-07T07:19:59;10.93;;;3.10;;
23266;SDS011;11802;53.160;8.214;2023-08-07T07:22:25;11.32;;;2.20;;
23266;SDS011;11802;53.160;8.214;2023-08-07T07:24:51;10.23;;;2.75;;
23266;SDS011;11802;53.160;8.214;2023-08-07T07:27:16;11.15;;;2.60;;
23266;SDS011;11802;53.160;8.214;2023-08-07T07:29:42;9.25;;;2.90;;
23266;SDS011;11802;53.160;8.214;2023-08-07T07:32:07;9.55;;;2.65;;
23266;SDS011;11802;53.160;8.214;2023-08-07T07:34:33;8.48;;;2.78;;
23266;SDS011;11802;53.160;8.214;2023-08-07T07:36:58;9.07;;;2.13;;
23266;SDS011;11802;53.160;8.214;2023-08-07T07:39:24;9.70;;;2.55;;
23266;SDS011;11802;53.160;8.214;2023-08-07T07:41:49;10.90;;;2.72;;
23266;SDS011;11802;53.160;8.214;2023-08-07T07:44:15;8.55;;;2.40;;
23266;SDS011;11802;53.160;8.214;2023-08-07T07:46:40;14.40;;;2.78;;
23266;SDS011;11802;53.160;8.214;2023-08-07T07:49:06;15.85;;;3.30;;
23266;SDS011;11802;53.160;8.214;2023-08-07T07:51:32;12.52;;;3.03;;
23266;SDS011;11802;53.160;8.214;2023-08-07T07:53:58;13.60;;;3.22;;
23266;SDS011;11802;53.160;8.214;2023-08-07T07:56:23;9.73;;;2.20;;
23266;SDS011;11802;53.160;8.214;2023-08-07T07:58:49;10.82;;;2.45;;
23266;SDS011;11802;53.160;8.214;2023-08-07T08:01:15;7.75;;;2.22;;
23266;SDS011;11802;53.160;8.214;2023-08-07T08:03:40;8.82;;;2.30;;
23266;SDS011;11802;53.160;8.214;2023-08-07T08:06:08;10.27;;;2.28;;
23266;SDS011;11802;53.160;8.214;2023-08-07T08:08:34;11.73;;;2.30;;
23266;SDS011;11802;53.160;8.214;2023-08-07T08:10:59;12.30;;;2.20;;
23266;SDS011;11802;53.160;8.214;2023-08-07T08:13:25;9.95;;;2.35;;
23266;SDS011;11802;53.160;8.214;2023-08-07T08:15:50;9.48;;;2.33;;
23266;SDS011;11802;53.160;8.214;2023-08-07T08:18:16;15.07;;;2.45;;
23266;SDS011;11802;53.160;8.214;2023-08-07T08:20:41;8.80;;;1.95;;
23266;SDS011;11802;53.160;8.214;2023-08-07T08:23:07;9.65;;;2.13;;
23266;SDS011;11802;53.160;8.214;2023-08-07T08:25:33;7.75;;;1.70;;
23266;SDS011;11802;53.160;8.214;2023-08-07T08:27:59;7.03;;;1.90;;
23266;SDS011;11802;53.160;8.214;2023-08-07T08:30:27;8.05;;;2.35;;
23266;SDS011;11802;53.160;8.214;2023-08-07T08:32:53;9.70;;;2.10;;
23266;SDS011;11802;53.160;8.214;2023-08-07T08:35:19;7.15;;;1.85;;
23266;SDS011;11802;53.160;8.214;2023-08-07T08:37:44;8.15;;;1.52;;
23266;SDS011;11802;53.160;8.214;2023-08-07T08:40:10;7.63;;;1.98;;
23266;SDS011;11802;53.160;8.214;2023-08-07T08:42:45;8.38;;;1.92;;
23266;SDS011;11802;53.160;8.214;2023-08-07T08:45:14;8.00;;;2.10;;
23266;SDS011;11802;53.160;8.214;2023-08-07T08:47:41;6.43;;;1.70;;
23266;SDS011;11802;53.160;8.214;2023-08-07T08:50:08;7.85;;;2.08;;
23266;SDS011;11802;53.160;8.214;2023-08-07T08:52:42;8.57;;;2.22;;
23266;SDS011;11802;53.160;8.214;2023-08-07T08:55:09;10.80;;;2.55;;
23266;SDS011;11802;53.160;8.214;2023-08-07T08:57:36;11.50;;;2.25;;
23266;SDS011;11802;53.160;8.214;2023-08-07T09:00:04;11.77;;;2.20;;
23266;SDS011;11802;53.160;8.214;2023-08-07T09:02:32;10.02;;;2.50;;
23266;SDS011;11802;53.160;8.214;2023-08-07T09:04:58;9.18;;;2.47;;
23266;SDS011;11802;53.160;8.214;2023-08-07T09:07:23;9.48;;;2.83;;
23266;SDS011;11802;53.160;8.214;2023-08-07T09:09:49;7.00;;;2.08;;
23266;SDS011;11802;53.160;8.214;2023-08-07T09:12:16;9.40;;;1.88;;
23266;SDS011;11802;53.160;8.214;2023-08-07T09:14:49;7.95;;;2.03;;
23266;SDS011;11802;53.160;8.214;2023-08-07T09:17:17;7.20;;;2.00;;
23266;SDS011;11802;53.160;8.214;2023-08-07T09:19:44;7.07;;;2.30;;
23266;SDS011;11802;53.160;8.214;2023-08-07T09:22:09;7.95;;;2.13;;
23266;SDS011;11802;53.160;8.214;2023-08-07T09:24:35;9.40;;;1.92;;
23266;SDS011;11802;53.160;8.214;2023-08-07T09:27:01;6.18;;;2.05;;
23266;SDS011;11802;53.160;8.214;2023-08-07T09:29:27;6.20;;;2.05;;
23266;SDS011;11802;53.160;8.214;2023-08-07T09:31:54;6.97;;;2.15;;
23266;SDS011;11802;53.160;8.214;2023-08-07T09:34:19;5.43;;;1.75;;
23266;SDS011;11802;53.160;8.214;2023-08-07T09:36:46;8.23;;;1.90;;
23266;SDS011;11802;53.160;8.214;2023-08-07T09:39:11;8.45;;;2.65;;
23266;SDS011;11802;53.160;8.214;2023-08-07T09:41:37;11.35;;;2.88;;
23266;SDS011;11802;53.160;8.214;2023-08-07T09:44:06;8.75;;;2.50;;
23266;SDS011;11802;53.160;8.214;2023-08-07T09:46:40;10.25;;;2.40;;
23266;SDS011;11802;53.160;8.214;2023-08-07T09:49:06;9.80;;;2.42;;
23266;SDS011;11802;53.160;8.214;2023-08-07T09:51:45;12.20;;;2.97;;
23266;SDS011;11802;53.160;8.214;2023-08-07T09:54:11;8.00;;;1.83;;
23266;SDS011;11802;53.160;8.214;2023-08-07T09:56:38;5.00;;;1.70;;
23266;SDS011;11802;53.160;8.214;2023-08-07T09:59:04;6.80;;;1.75;;
23266;SDS011;11802;53.160;8.214;2023-08-07T10:01:30;6.65;;;1.70;;
23266;SDS011;11802;53.160;8.214;2023-08-07T10:03:57;8.07;;;1.83;;
23266;SDS011;11802;53.160;8.214;2023-08-07T10:06:23;6.30;;;1.70;;
23266;SDS011;11802;53.160;8.214;2023-08-07T10:08:48;9.38;;;2.25;;
23266;SDS011;11802;53.160;8.214;2023-08-07T10:11:14;7.88;;;2.08;;
23266;SDS011;11802;53.160;8.214;2023-08-07T10:13:41;9.05;;;2.10;;
23266;SDS011;11802;53.160;8.214;2023-08-07T10:16:07;7.13;;;1.80;;
23266;SDS011;11802;53.160;8.214;2023-08-07T10:18:32;6.82;;;1.88;;
23266;SDS011;11802;53.160;8.214;2023-08-07T10:20:58;4.57;;;1.55;;
23266;SDS011;11802;53.160;8.214;2023-08-07T10:23:26;5.75;;;1.70;;
23266;SDS011;11802;53.160;8.214;2023-08-07T10:25:52;6.40;;;1.70;;
23266;SDS011;11802;53.160;8.214;2023-08-07T10:28:19;9.80;;;2.22;;
23266;SDS011;11802;53.160;8.214;2023-08-07T10:30:48;7.95;;;2.17;;
23266;SDS011;11802;53.160;8.214;2023-08-07T10:33:15;10.48;;;2.55;;
23266;SDS011;11802;53.160;8.214;2023-08-07T10:35:46;12.50;;;3.00;;
23266;SDS011;11802;53.160;8.214;2023-08-07T10:38:16;10.02;;;2.40;;
23266;SDS011;11802;53.160;8.214;2023-08-07T10:43:40;10.27;;;2.80;;
23266;SDS011;11802;53.160;8.214;2023-08-07T10:46:14;12.27;;;2.13;;
23266;SDS011;11802;53.160;8.214;2023-08-07T10:48:44;11.35;;;2.47;;
23266;SDS011;11802;53.160;8.214;2023-08-07T10:51:14;11.88;;;2.58;;
23266;SDS011;11802;53.160;8.214;2023-08-07T10:53:44;9.70;;;2.90;;
23266;SDS011;11802;53.160;8.214;2023-08-07T10:56:30;10.45;;;2.30;;
23266;SDS011;11802;53.160;8.214;2023-08-07T10:58:56;11.77;;;2.20;;
23266;SDS011;11802;53.160;8.214;2023-08-07T11:01:27;8.98;;;2.53;;
23266;SDS011;11802;53.160;8.214;2023-08-07T11:04:05;10.38;;;2.35;;
23266;SDS011;11802;53.160;8.214;2023-08-07T11:06:35;12.68;;;2.47;;
23266;SDS011;11802;53.160;8.214;2023-08-07T11:09:02;7.15;;;1.92;;
23266;SDS011;11802;53.160;8.214;2023-08-07T11:11:30;7.15;;;2.22;;
23266;SDS011;11802;53.160;8.214;2023-08-07T11:14:04;8.63;;;2.58;;
23266;SDS011;11802;53.160;8.214;2023-08-07T11:16:31;11.73;;;2.70;;
23266;SDS011;11802;53.160;8.214;2023-08-07T11:18:57;7.38;;;2.40;;
23266;SDS011;11802;53.160;8.214;2023-08-07T11:21:23;7.22;;;2.10;;
23266;SDS011;11802;53.160;8.214;2023-08-07T11:23:50;7.28;;;2.53;;
23266;SDS011;11802;53.160;8.214;2023-08-07T11:26:15;8.00;;;2.47;;
23266;SDS011;11802;53.160;8.214;2023-08-07T11:28:42;9.82;;;2.67;;
23266;SDS011;11802;53.160;8.214;2023-08-07T11:31:08;6.97;;;2.08;;
23266;SDS011;11802;53.160;8.214;2023-08-07T11:33:33;9.05;;;2.42;;
23266;SDS011;11802;53.160;8.214;2023-08-07T11:36:01;10.10;;;2.40;;
23266;SDS011;11802;53.160;8.214;2023-08-07T11:38:39;7.22;;;2.10;;
23266;SDS011;11802;53.160;8.214;2023-08-07T11:41:10;9.48;;;2.10;;
23266;SDS011;11802;53.160;8.214;2023-08-07T11:43:37;9.60;;;1.83;;
23266;SDS011;11802;53.160;8.214;2023-08-07T11:46:04;9.40;;;2.15;;
23266;SDS011;11802;53.160;8.214;2023-08-07T11:48:32;8.40;;;2.08;;
23266;SDS011;11802;53.160;8.214;2023-08-07T11:50:58;9.80;;;2.60;;
23266;SDS011;11802;53.160;8.214;2023-08-07T11:53:25;10.38;;;1.98;;
23266;SDS011;11802;53.160;8.214;2023-08-07T11:58:21;9.63;;;2.03;;
23266;SDS011;11802;53.160;8.214;2023-08-07T12:00:49;8.88;;;1.98;;
23266;SDS011;11802;53.160;8.214;2023-08-07T12:03:24;7.78;;;1.80;;
23266;SDS011;11802;53.160;8.214;2023-08-07T12:05:55;7.75;;;1.60;;
23266;SDS011;11802;53.160;8.214;2023-08-07T12:08:22;10.30;;;1.90;;
23266;SDS011;11802;53.160;8.214;2023-08-07T12:10:51;7.50;;;1.90;;
23266;SDS011;11802;53.160;8.214;2023-08-07T12:13:24;7.13;;;1.70;;
23266;SDS011;11802;53.160;8.214;2023-08-07T12:15:53;8.70;;;2.05;;
23266;SDS011;11802;53.160;8.214;2023-08-07T12:18:19;4.80;;;1.63;;
23266;SDS011;11802;53.160;8.214;2023-08-07T12:20:46;6.07;;;1.77;;
23266;SDS011;11802;53.160;8.214;2023-08-07T12:23:14;6.55;;;2.00;;
23266;SDS011;11802;53.160;8.214;2023-08-07T12:25:44;5.50;;;1.67;;
23266;SDS011;11802;53.160;8.214;2023-08-07T12:28:10;8.13;;;2.10;;
23266;SDS011;11802;53.160;8.214;2023-08-07T12:30:36;6.40;;;2.08;;
23266;SDS011;11802;53.160;8.214;2023-08-07T12:33:02;10.57;;;2.20;;
23266;SDS011;11802;53.160;8.214;2023-08-07T12:35:29;11.18;;;2.60;;
23266;SDS011;11802;53.160;8.214;2023-08-07T12:37:55;6.78;;;1.90;;
23266;SDS011;11802;53.160;8.214;2023-08-07T12:40:21;9.05;;;2.22;;
23266;SDS011;11802;53.160;8.214;2023-08-07T12:42:48;13.73;;;2.75;;
23266;SDS011;11802;53.160;8.214;2023-08-07T12:45:13;11.38;;;2.10;;
23266;SDS011;11802;53.160;8.214;2023-08-07T12:47:40;11.75;;;2.60;;
23266;SDS011;11802;53.160;8.214;2023-08-07T12:50:07;6.78;;;2.10;;
23266;SDS011;11802;53.160;8.214;2023-08-07T12:52:33;7.43;;;2.05;;
23266;SDS011;11802;53.160;8.214;2023-08-07T12:54:59;8.70;;;2.63;;
23266;SDS011;11802;53.160;8.214;2023-08-07T12:57:25;8.15;;;2.03;;
23266;SDS011;11802;53.160;8.214;2023-08-07T12:59:51;8.45;;;2.60;;
23266;SDS011;11802;53.160;8.214;2023-08-07T13:02:16;9.38;;;2.35;;
23266;SDS011;11802;53.160;8.214;2023-08-07T13:04:42;6.70;;;2.33;;
23266;SDS011;11802;53.160;8.214;2023-08-07T13:07:07;9.25;;;2.30;;
23266;SDS011;11802;53.160;8.214;2023-08-07T13:09:33;11.52;;;2.60;;
23266;SDS011;11802;53.160;8.214;2023-08-07T13:11:58;7.45;;;2.17;;
23266;SDS011;11802;53.160;8.214;2023-08-07T13:14:24;7.05;;;2.15;;
23266;SDS011;11802;53.160;8.214;2023-08-07T13:16:49;6.18;;;1.95;;
23266;SDS011;11802;53.160;8.214;2023-08-07T13:19:16;8.35;;;2.25;;
23266;SDS011;11802;53.160;8.214;2023-08-07T13:21:41;8.07;;;2.05;;
23266;SDS011;11802;53.160;8.214;2023-08-07T13:24:07;6.05;;;1.80;;
23266;SDS011;11802;53.160;8.214;2023-08-07T13:26:32;7.05;;;2.10;;
23266;SDS011;11802;53.160;8.214;2023-08-07T13:28:58;10.30;;;2.00;;
23266;SDS011;11802;53.160;8.214;2023-08-07T13:31:23;9.63;;;2.35;;
23266;SDS011;11802;53.160;8.214;2023-08-07T13:33:49;11.38;;;2.13;;
23266;SDS011;11802;53.160;8.214;2023-08-07T13:36:14;6.22;;;2.00;;
23266;SDS011;11802;53.160;8.214;2023-08-07T13:38:40;7.40;;;2.38;;
23266;SDS011;11802;53.160;8.214;2023-08-07T13:41:05;6.95;;;1.95;;
23266;SDS011;11802;53.160;8.214;2023-08-07T13:43:31;5.57;;;1.63;;
23266;SDS011;11802;53.160;8.214;2023-08-07T13:45:57;8.32;;;1.90;;
23266;SDS011;11802;53.160;8.214;2023-08-07T13:48:23;8.65;;;2.13;;
23266;SDS011;11802;53.160;8.214;2023-08-07T13:50:51;10.95;;;2.40;;
23266;SDS011;11802;53.160;8.214;2023-08-07T13:53:17;7.18;;;2.13;;
23266;SDS011;11802;53.160;8.214;2023-08-07T13:55:44;5.95;;;2.10;;
23266;SDS011;11802;53.160;8.214;2023-08-07T13:58:11;8.77;;;2.28;;
23266;SDS011;11802;53.160;8.214;2023-08-07T14:00:40;9.13;;;2.25;;
23266;SDS011;11802;53.160;8.214;2023-08-07T14:03:06;9.07;;;2.33;;
23266;SDS011;11802;53.160;8.214;2023-08-07T14:05:31;12.60;;;2.25;;
23266;SDS011;11802;53.160;8.214;2023-08-07T14:07:57;7.43;;;2.45;;
23266;SDS011;11802;53.160;8.214;2023-08-07T14:10:23;7.55;;;2.30;;
23266;SDS011;11802;53.160;8.214;2023-08-07T14:12:48;7.47;;;2.05;;
23266;SDS011;11802;53.160;8.214;2023-08-07T14:15:14;5.50;;;1.95;;
23266;SDS011;11802;53.160;8.214;2023-08-07T14:17:39;5.15;;;1.70;;
23266;SDS011;11802;53.160;8.214;2023-08-07T14:20:05;6.30;;;2.20;;
23266;SDS011;11802;53.160;8.214;2023-08-07T14:22:31;5.82;;;1.60;;
23266;SDS011;11802;53.160;8.214;2023-08-07T14:24:57;4.43;;;1.50;;
23266;SDS011;11802;53.160;8.214;2023-08-07T14:27:22;5.38;;;1.77;;
23266;SDS011;11802;53.160;8.214;2023-08-07T14:29:48;3.97;;;1.80;;
23266;SDS011;11802;53.160;8.214;2023-08-07T14:32:13;6.70;;;2.00;;
23266;SDS011;11802;53.160;8.214;2023-08-07T14:34:39;4.35;;;1.58;;
23266;SDS011;11802;53.160;8.214;2023-08-07T14:37:04;4.43;;;1.30;;
23266;SDS011;11802;53.160;8.214;2023-08-07T14:39:30;7.15;;;1.50;;
23266;SDS011;11802;53.160;8.214;2023-08-07T14:41:55;6.00;;;1.75;;
23266;SDS011;11802;53.160;8.214;2023-08-07T14:44:21;11.13;;;2.00;;
23266;SDS011;11802;53.160;8.214;2023-08-07T14:46:47;8.98;;;1.52;;